Time;durP1;ratioP1;P1;durP2;ratioP2;P2;SDS_P1;SDS_P2;PMS_P1;PMS_P2;Temp;Humidity;BMP_temperature;BMP_pressure;BME280_temperature;BME280_humidity;BME280_pressure;Samples;Min_cycle;Max_cycle;Signal;HPM_P1;HPM_P2
2023/03/12 00:00:56;;;;;;;7.60;5.22;;;3.10;99.90;;;;;;2028740;29;20037;-71
2023/03/12 00:01:58;;;;;;;8.38;5.85;;;3.10;99.90;;;;;;2035488;29;20122;-71
2023/03/12 00:02:59;;;;;;;9.60;5.97;;;3.10;99.90;;;;;;2036576;29;20027;-71
2023/03/12 00:04:03;;;;;;;9.02;5.80;;;3.10;99.90;;;;;;2036179;29;20982;-73
2023/03/12 00:05:04;;;;;;;12.73;6.40;;;3.10;99.90;;;;;;2036833;29;20059;-71
2023/03/12 00:06:05;;;;;;;13.77;6.45;;;3.10;99.90;;;;;;2035143;29;20043;-71
2023/03/12 00:07:07;;;;;;;9.38;5.60;;;3.10;99.90;;;;;;2035468;29;20103;-71
2023/03/12 00:08:08;;;;;;;9.38;5.78;;;3.10;99.90;;;;;;2036441;29;20107;-71
2023/03/12 00:09:09;;;;;;;8.32;5.32;;;3.10;99.90;;;;;;2035481;29;20036;-71
2023/03/12 00:10:10;;;;;;;8.15;5.28;;;3.10;99.90;;;;;;2034811;29;20099;-71
2023/03/12 00:11:14;;;;;;;13.93;6.57;;;3.10;99.90;;;;;;2034539;29;20035;-71
2023/03/12 00:12:14;;;;;;;10.43;6.47;;;3.20;99.90;;;;;;2034394;29;20048;-71
2023/03/12 00:13:15;;;;;;;7.53;5.40;;;3.20;99.90;;;;;;2035613;29;20566;-71
2023/03/12 00:14:16;;;;;;;11.35;6.28;;;3.20;99.90;;;;;;2035953;29;20071;-71
2023/03/12 00:15:16;;;;;;;12.75;6.13;;;3.20;99.90;;;;;;2035402;29;20058;-71
2023/03/12 00:16:18;;;;;;;9.95;5.70;;;3.20;99.90;;;;;;2035629;29;20031;-71
2023/03/12 00:17:18;;;;;;;8.02;5.30;;;3.20;99.90;;;;;;2035481;29;20090;-71
2023/03/12 00:18:19;;;;;;;8.38;6.05;;;3.20;99.90;;;;;;2036503;29;20058;-71
2023/03/12 00:19:20;;;;;;;9.90;6.40;;;3.20;99.90;;;;;;2035389;29;20051;-71
2023/03/12 00:20:22;;;;;;;8.40;5.35;;;3.20;99.90;;;;;;2027662;29;20035;-71
2023/03/12 00:21:23;;;;;;;9.23;6.45;;;3.20;99.90;;;;;;2028021;29;20051;-71
2023/03/12 00:22:24;;;;;;;8.75;6.28;;;3.20;99.90;;;;;;2036465;29;20026;-71
2023/03/12 00:23:25;;;;;;;14.45;6.03;;;3.20;99.90;;;;;;2036341;29;20027;-71
2023/03/12 00:24:25;;;;;;;13.20;6.43;;;3.20;99.90;;;;;;2032987;29;20491;-71
2023/03/12 00:25:26;;;;;;;14.90;6.13;;;3.20;99.90;;;;;;2035690;29;20028;-71
2023/03/12 00:26:27;;;;;;;8.25;5.90;;;3.20;99.90;;;;;;2036432;29;20027;-71
2023/03/12 00:27:27;;;;;;;10.20;5.68;;;3.20;99.90;;;;;;2036756;29;20023;-71
2023/03/12 00:28:29;;;;;;;8.05;5.88;;;3.20;99.90;;;;;;2035107;29;20027;-71
2023/03/12 00:29:29;;;;;;;11.60;6.25;;;3.20;99.90;;;;;;2035419;29;20443;-71
2023/03/12 00:30:30;;;;;;;7.80;5.60;;;3.20;99.90;;;;;;2034267;29;20523;-71
2023/03/12 00:31:32;;;;;;;8.23;5.75;;;3.20;99.90;;;;;;2034999;29;20016;-71
2023/03/12 00:32:33;;;;;;;7.55;5.72;;;3.20;99.90;;;;;;2036107;29;20024;-71
2023/03/12 00:33:34;;;;;;;9.27;5.28;;;3.20;99.90;;;;;;2035012;29;20020;-71
2023/03/12 00:34:34;;;;;;;10.18;4.97;;;3.20;99.90;;;;;;2035520;29;20059;-71
2023/03/12 00:35:37;;;;;;;8.52;5.22;;;3.10;99.90;;;;;;2034291;29;20027;-71
2023/03/12 00:36:40;;;;;;;9.93;5.78;;;3.10;99.90;;;;;;2036874;29;20021;-71
2023/03/12 00:37:40;;;;;;;7.55;5.18;;;3.20;99.90;;;;;;2035785;29;20088;-71
2023/03/12 00:38:41;;;;;;;9.50;5.60;;;3.20;99.90;;;;;;2036793;29;20084;-71
2023/03/12 00:39:42;;;;;;;7.25;4.93;;;3.10;99.90;;;;;;2034996;29;20098;-71
2023/03/12 00:40:43;;;;;;;8.88;5.50;;;3.10;99.90;;;;;;2035567;29;20024;-71
2023/03/12 00:41:43;;;;;;;7.63;4.55;;;3.10;99.90;;;;;;2034888;29;20064;-71
2023/03/12 00:42:44;;;;;;;5.93;3.97;;;3.10;99.90;;;;;;2036479;29;20115;-71
2023/03/12 00:43:49;;;;;;;8.82;4.57;;;3.10;99.90;;;;;;2033994;29;20024;-71
2023/03/12 00:44:49;;;;;;;9.70;5.25;;;3.10;99.90;;;;;;2034162;29;20102;-71
2023/03/12 00:45:50;;;;;;;8.27;4.82;;;3.10;99.90;;;;;;2027723;29;20084;-71
2023/03/12 00:46:51;;;;;;;9.20;4.63;;;3.10;99.90;;;;;;2028487;29;20032;-71
2023/03/12 00:47:51;;;;;;;7.93;3.65;;;3.10;99.90;;;;;;2035651;29;20092;-71
2023/03/12 00:48:52;;;;;;;6.00;4.38;;;3.10;99.90;;;;;;2035668;29;20035;-71
2023/03/12 00:49:52;;;;;;;10.27;4.75;;;3.20;99.90;;;;;;2037165;29;20139;-71
2023/03/12 00:50:53;;;;;;;7.93;4.38;;;3.20;99.90;;;;;;2034694;29;20051;-71
2023/03/12 00:51:54;;;;;;;8.32;4.35;;;3.20;99.90;;;;;;2027779;29;20120;-71
2023/03/12 00:52:54;;;;;;;7.30;4.38;;;3.20;99.90;;;;;;2029434;29;20036;-71
2023/03/12 00:53:55;;;;;;;7.78;3.97;;;3.20;99.90;;;;;;2035634;29;20027;-71
2023/03/12 00:54:57;;;;;;;8.57;4.40;;;3.20;99.90;;;;;;2037191;29;20024;-71
2023/03/12 00:55:58;;;;;;;7.90;4.47;;;3.20;99.90;;;;;;2036856;29;20059;-71
2023/03/12 00:56:58;;;;;;;8.80;4.18;;;3.20;99.90;;;;;;2038764;29;20034;-71
2023/03/12 00:57:59;;;;;;;11.18;4.38;;;3.20;99.90;;;;;;2038192;29;20119;-71
2023/03/12 00:58:59;;;;;;;6.38;4.28;;;3.20;99.90;;;;;;2037709;29;20428;-71
2023/03/12 01:00:00;;;;;;;7.72;4.35;;;3.20;99.90;;;;;;2038438;29;20034;-71
2023/03/12 01:01:00;;;;;;;7.18;4.20;;;3.20;99.90;;;;;;2037922;29;20032;-71
2023/03/12 01:02:01;;;;;;;5.25;3.60;;;3.20;99.90;;;;;;2037975;29;20530;-71
2023/03/12 01:03:02;;;;;;;6.88;3.72;;;3.30;99.90;;;;;;2035645;29;20036;-71
2023/03/12 01:04:02;;;;;;;8.07;3.83;;;3.20;99.90;;;;;;2037652;29;20107;-71
2023/03/12 01:05:05;;;;;;;5.65;3.67;;;3.20;99.90;;;;;;2036972;29;20613;-71
2023/03/12 01:06:05;;;;;;;7.78;4.07;;;3.30;99.90;;;;;;2038879;29;20138;-72
2023/03/12 01:07:06;;;;;;;10.20;4.18;;;3.30;99.90;;;;;;2028205;29;20079;-72
2023/03/12 01:08:07;;;;;;;10.23;4.00;;;3.30;99.90;;;;;;2029648;29;20048;-72
2023/03/12 01:09:08;;;;;;;6.13;3.63;;;3.30;99.90;;;;;;2036495;29;20028;-72
2023/03/12 01:10:12;;;;;;;6.32;3.60;;;3.30;99.90;;;;;;2037608;29;20032;-71
2023/03/12 01:11:17;;;;;;;7.15;3.70;;;3.30;99.90;;;;;;2037576;29;20048;-71
2023/03/12 01:12:18;;;;;;;9.13;4.05;;;3.30;99.90;;;;;;2039114;29;20535;-71
2023/03/12 01:13:18;;;;;;;7.70;3.92;;;3.30;99.90;;;;;;2037501;29;20395;-71
2023/03/12 01:14:19;;;;;;;8.45;3.33;;;3.30;99.90;;;;;;2037244;29;20066;-71
2023/03/12 01:15:20;;;;;;;8.48;3.80;;;3.30;99.90;;;;;;2038524;29;20035;-71
2023/03/12 01:16:21;;;;;;;8.15;3.72;;;3.40;99.90;;;;;;2036846;29;20040;-71
2023/03/12 01:17:21;;;;;;;4.90;3.45;;;3.40;99.90;;;;;;2037330;29;20027;-71
2023/03/12 01:18:22;;;;;;;6.28;3.33;;;3.40;99.90;;;;;;2036613;29;20082;-71
2023/03/12 01:19:22;;;;;;;7.85;3.70;;;3.40;99.90;;;;;;2037714;29;20027;-71
2023/03/12 01:20:23;;;;;;;5.68;3.25;;;3.40;99.90;;;;;;2037546;29;20045;-71
2023/03/12 01:21:25;;;;;;;5.65;3.30;;;3.40;99.90;;;;;;2029177;29;20480;-71
2023/03/12 01:22:26;;;;;;;6.45;3.00;;;3.40;99.90;;;;;;2027734;29;20148;-71
2023/03/12 01:23:27;;;;;;;7.85;3.53;;;3.40;99.90;;;;;;2038531;29;20484;-71
2023/03/12 01:24:27;;;;;;;7.50;3.53;;;3.40;99.90;;;;;;2036083;29;20020;-71
2023/03/12 01:25:28;;;;;;;7.28;3.35;;;3.40;99.90;;;;;;2027952;29;20137;-71
2023/03/12 01:26:28;;;;;;;5.43;3.10;;;3.40;99.90;;;;;;2029009;29;20032;-72
2023/03/12 01:27:29;;;;;;;6.40;3.20;;;3.50;99.90;;;;;;2036964;29;20050;-71
2023/03/12 01:28:29;;;;;;;6.80;3.33;;;3.50;99.90;;;;;;2037418;29;20130;-71
2023/03/12 01:29:30;;;;;;;6.40;3.22;;;3.50;99.90;;;;;;2036664;29;20039;-71
2023/03/12 01:30:31;;;;;;;5.35;2.90;;;3.50;99.90;;;;;;2036047;29;20031;-71
2023/03/12 01:31:31;;;;;;;3.50;3.00;;;3.50;99.90;;;;;;2039178;29;20107;-71
2023/03/12 01:32:32;;;;;;;6.38;2.88;;;3.50;99.90;;;;;;2036944;29;20034;-71
2023/03/12 01:33:32;;;;;;;5.57;3.25;;;3.50;99.90;;;;;;2037505;29;20427;-71
2023/03/12 01:34:34;;;;;;;5.68;3.47;;;3.50;99.90;;;;;;2036716;29;20024;-71
2023/03/12 01:35:39;;;;;;;5.78;3.17;;;3.50;99.90;;;;;;2036472;29;20019;-71
2023/03/12 01:36:40;;;;;;;5.43;2.80;;;3.50;99.90;;;;;;2036970;29;20487;-71
2023/03/12 01:37:40;;;;;;;12.23;3.55;;;3.50;99.90;;;;;;2037622;29;20031;-71
2023/03/12 01:38:41;;;;;;;8.40;3.25;;;3.50;99.90;;;;;;2037835;29;20507;-71
2023/03/12 01:39:41;;;;;;;9.20;3.45;;;3.50;99.90;;;;;;2038348;29;20024;-71
2023/03/12 01:40:42;;;;;;;6.25;3.30;;;3.50;99.90;;;;;;2037447;29;20617;-71
2023/03/12 01:41:43;;;;;;;5.95;3.30;;;3.50;99.90;;;;;;2028225;29;20032;-71
2023/03/12 01:42:54;;;;;;;9.27;3.25;;;3.50;99.90;;;;;;2029893;29;20063;-72
2023/03/12 01:43:55;;;;;;;4.88;3.08;;;3.50;99.90;;;;;;2036163;29;20040;-71
2023/03/12 01:44:58;;;;;;;9.02;3.50;;;3.50;99.90;;;;;;2037889;29;20032;-71
2023/03/12 01:46:20;;;;;;;5.28;3.28;;;3.50;99.90;;;;;;2038117;29;20019;-71
2023/03/12 01:47:21;;;;;;;5.72;3.10;;;3.60;99.90;;;;;;2037273;29;20047;-71
2023/03/12 01:48:22;;;;;;;5.80;3.00;;;3.50;99.90;;;;;;2038015;29;20024;-71
2023/03/12 01:49:33;;;;;;;4.03;2.80;;;3.60;99.90;;;;;;2037284;29;20111;-71
2023/03/12 01:50:33;;;;;;;;;;;3.60;99.90;;;;;;2037784;29;20876;-71
2023/03/12 01:51:42;;;;;;;9.23;3.42;;;3.50;99.90;;;;;;2036844;29;20287;-71
2023/03/12 01:52:42;;;;;;;7.20;3.17;;;3.50;99.90;;;;;;2038746;29;20024;-71
2023/03/12 01:53:46;;;;;;;8.45;2.90;;;3.50;99.90;;;;;;2037197;29;20036;-71
2023/03/12 01:55:00;;;;;;;6.85;3.38;;;3.60;99.90;;;;;;2035652;29;20036;-72
2023/03/12 01:56:01;;;;;;;5.50;2.60;;;3.50;99.90;;;;;;2037764;29;20044;-71
2023/03/12 01:57:04;;;;;;;7.85;3.22;;;3.60;99.90;;;;;;2037904;29;20033;-71
2023/03/12 01:58:06;;;;;;;5.43;2.78;;;3.60;99.90;;;;;;2035433;29;20398;-71
2023/03/12 01:59:15;;;;;;;7.60;3.25;;;3.60;99.90;;;;;;2037473;29;20032;-71
2023/03/12 02:00:22;;;;;;;7.32;3.05;;;3.60;99.90;;;;;;2037409;29;20024;-72
2023/03/12 02:01:24;;;;;;;6.20;3.15;;;3.60;99.90;;;;;;2038443;29;20035;-72
2023/03/12 02:02:27;;;;;;;8.95;3.35;;;3.60;99.90;;;;;;2034639;29;20024;-72
2023/03/12 02:03:30;;;;;;;8.60;3.10;;;3.60;99.90;;;;;;2031103;29;20075;-72
2023/03/12 02:04:32;;;;;;;5.95;3.38;;;3.70;99.90;;;;;;2031312;29;20782;-72
2023/03/12 02:05:50;;;;;;;3.70;2.53;;;3.70;99.90;;;;;;2034244;29;20036;-71
2023/03/12 02:07:02;;;;;;;8.77;3.70;;;3.70;99.90;;;;;;2035390;29;20036;-71
2023/03/12 02:08:03;;;;;;;5.65;3.20;;;3.70;99.90;;;;;;2036150;29;20027;-71
2023/03/12 02:09:06;;;;;;;7.38;3.05;;;3.70;99.90;;;;;;2037067;29;20032;-71
2023/03/12 02:10:07;;;;;;;6.78;3.35;;;3.70;99.90;;;;;;2036849;29;20396;-71
2023/03/12 02:11:08;;;;;;;9.98;3.45;;;3.70;99.90;;;;;;2038029;29;20491;-71
2023/03/12 02:12:08;;;;;;;3.58;2.90;;;3.70;99.90;;;;;;2038050;29;20387;-71
2023/03/12 02:13:10;;;;;;;7.00;3.17;;;3.80;99.90;;;;;;2037693;29;20071;-71
2023/03/12 02:14:10;;;;;;;5.18;3.00;;;3.80;99.90;;;;;;2037751;29;20020;-71
2023/03/12 02:15:11;;;;;;;4.15;2.78;;;3.80;99.90;;;;;;2039208;29;20038;-71
2023/03/12 02:16:12;;;;;;;5.22;2.63;;;3.80;99.90;;;;;;2036794;29;20063;-71
2023/03/12 02:17:12;;;;;;;6.65;2.75;;;3.80;99.90;;;;;;2037858;29;20043;-71
2023/03/12 02:18:16;;;;;;;7.63;2.60;;;3.80;99.90;;;;;;2037254;29;20027;-71
2023/03/12 02:19:26;;;;;;;6.03;2.97;;;3.90;99.90;;;;;;2036363;29;20036;-71
2023/03/12 02:20:49;;;;;;;6.85;2.80;;;3.90;99.90;;;;;;2034825;29;20016;-71
2023/03/12 02:21:50;;;;;;;7.07;2.90;;;3.90;99.90;;;;;;2036406;29;20508;-71
2023/03/12 02:23:03;;;;;;;8.32;2.83;;;3.90;99.90;;;;;;2037382;29;20040;-71
2023/03/12 02:24:34;;;;;;;5.53;2.78;;;3.90;99.90;;;;;;2030865;29;20088;-71
2023/03/12 02:25:41;;;;;;;4.38;2.67;;;3.90;99.90;;;;;;2035059;29;20024;-71
2023/03/12 02:26:41;;;;;;;4.32;2.80;;;3.90;99.90;;;;;;2029964;29;20047;-71
2023/03/12 02:27:42;;;;;;;5.88;2.70;;;3.90;99.90;;;;;;2029165;29;20099;-71
2023/03/12 02:28:44;;;;;;;4.53;2.60;;;3.90;99.90;;;;;;2029460;29;20507;-71
2023/03/12 02:29:45;;;;;;;6.03;2.83;;;3.90;99.90;;;;;;2027831;29;20056;-71
2023/03/12 02:30:50;;;;;;;5.75;2.97;;;3.90;99.90;;;;;;2036576;29;20028;-71
2023/03/12 02:31:55;;;;;;;4.97;2.78;;;3.90;99.90;;;;;;2035344;29;20130;-71
2023/03/12 02:33:00;;;;;;;5.53;2.83;;;4.00;99.90;;;;;;2027756;29;20043;-71
2023/03/12 02:34:01;;;;;;;6.07;3.03;;;4.00;99.90;;;;;;2031128;29;20021;-71
2023/03/12 02:35:03;;;;;;;5.30;2.90;;;4.00;99.90;;;;;;2037997;29;20016;-71
2023/03/12 02:36:04;;;;;;;7.65;3.22;;;4.00;99.90;;;;;;2035923;29;20917;-71
2023/03/12 02:37:05;;;;;;;4.32;2.55;;;4.00;99.90;;;;;;2035591;29;20470;-71
2023/03/12 02:38:36;;;;;;;5.18;2.90;;;4.00;99.90;;;;;;2036450;29;20027;-71
2023/03/12 02:39:38;;;;;;;5.03;2.58;;;4.00;99.90;;;;;;2035855;29;20491;-71
2023/03/12 02:40:45;;;;;;;3.80;2.58;;;4.00;99.90;;;;;;2035357;29;20391;-72
2023/03/12 02:41:49;;;;;;;6.53;2.70;;;4.00;99.90;;;;;;2037078;29;20023;-72
2023/03/12 02:42:51;;;;;;;6.40;3.05;;;4.00;99.90;;;;;;2036996;29;20032;-72
2023/03/12 02:44:15;;;;;;;8.70;2.72;;;4.00;99.90;;;;;;2036506;29;20020;-72
2023/03/12 02:45:16;;;;;;;6.72;3.22;;;4.00;99.90;;;;;;2035431;29;20031;-72
2023/03/12 02:46:17;;;;;;;5.68;2.80;;;4.00;99.90;;;;;;2036456;29;20031;-72
2023/03/12 02:47:17;;;;;;;9.18;2.75;;;4.00;99.90;;;;;;2030512;29;20103;-72
2023/03/12 02:48:18;;;;;;;5.05;2.60;;;4.00;99.90;;;;;;2030914;29;20484;-72
2023/03/12 02:49:20;;;;;;;6.82;3.38;;;4.00;99.90;;;;;;2037268;29;20670;-72
2023/03/12 02:50:21;;;;;;;6.25;2.63;;;4.10;99.90;;;;;;2036195;29;20036;-72
2023/03/12 02:51:22;;;;;;;4.15;2.90;;;4.10;99.90;;;;;;2033993;29;20546;-72
2023/03/12 02:52:22;;;;;;;4.78;2.60;;;4.10;99.90;;;;;;2037546;29;20040;-72
2023/03/12 02:53:23;;;;;;;6.03;3.10;;;4.10;99.90;;;;;;2035272;29;20628;-72
2023/03/12 02:54:24;;;;;;;5.32;3.20;;;4.10;99.90;;;;;;2034174;29;20027;-72
2023/03/12 02:55:24;;;;;;;8.38;3.67;;;4.10;99.90;;;;;;2035905;29;20111;-72
2023/03/12 02:56:26;;;;;;;4.70;2.95;;;4.10;99.90;;;;;;2033879;29;20594;-72
2023/03/12 02:57:27;;;;;;;6.68;3.30;;;4.10;99.90;;;;;;2037207;29;20026;-72
2023/03/12 02:58:27;;;;;;;9.55;3.20;;;4.10;99.90;;;;;;2036016;29;20032;-72
2023/03/12 02:59:28;;;;;;;9.77;2.83;;;4.10;99.90;;;;;;2036903;29;20115;-71
2023/03/12 03:00:31;;;;;;;5.80;2.80;;;4.10;99.90;;;;;;2035812;29;20024;-72
2023/03/12 03:01:34;;;;;;;6.93;3.25;;;4.10;99.90;;;;;;2036573;29;20055;-72
2023/03/12 03:02:34;;;;;;;3.88;2.67;;;4.10;99.90;;;;;;2036512;29;20027;-72
2023/03/12 03:03:35;;;;;;;6.95;3.10;;;4.10;99.90;;;;;;2034993;29;20035;-72
2023/03/12 03:04:35;;;;;;;8.90;3.15;;;4.10;99.90;;;;;;2037340;29;20035;-72
2023/03/12 03:05:36;;;;;;;5.57;3.00;;;4.20;99.90;;;;;;2029176;29;20107;-72
2023/03/12 03:06:39;;;;;;;5.13;2.90;;;4.20;99.90;;;;;;2028384;29;20032;-72
2023/03/12 03:07:40;;;;;;;5.95;3.00;;;4.20;99.90;;;;;;2035847;29;20106;-72
2023/03/12 03:08:41;;;;;;;5.18;2.75;;;4.20;99.90;;;;;;2027519;29;20072;-72
2023/03/12 03:09:42;;;;;;;6.20;3.45;;;4.20;99.90;;;;;;2028326;29;20104;-72
2023/03/12 03:10:42;;;;;;;5.53;2.97;;;4.20;99.90;;;;;;2035412;29;20028;-72
2023/03/12 03:11:43;;;;;;;6.70;3.13;;;4.20;99.90;;;;;;2037173;29;20442;-72
2023/03/12 03:12:44;;;;;;;4.88;2.58;;;4.20;99.90;;;;;;2037243;29;20036;-72
2023/03/12 03:13:44;;;;;;;4.95;2.60;;;4.20;99.90;;;;;;2036855;29;20115;-72
2023/03/12 03:14:45;;;;;;;7.55;3.03;;;4.20;99.90;;;;;;2037882;29;20025;-72
2023/03/12 03:15:45;;;;;;;6.10;2.75;;;4.20;99.90;;;;;;2037478;29;20107;-72
2023/03/12 03:16:46;;;;;;;8.25;3.10;;;4.20;99.90;;;;;;2038101;29;20023;-72
2023/03/12 03:17:46;;;;;;;7.38;2.97;;;4.20;99.90;;;;;;2036665;29;20502;-72
2023/03/12 03:18:47;;;;;;;7.43;2.80;;;4.20;99.90;;;;;;2036658;29;20024;-72
2023/03/12 03:19:48;;;;;;;5.15;2.75;;;4.20;99.90;;;;;;2035189;29;20036;-72
2023/03/12 03:21:04;;;;;;;6.25;2.80;;;4.20;99.90;;;;;;2036662;29;20976;-72
2023/03/12 03:22:05;;;;;;;6.10;2.88;;;4.20;99.90;;;;;;2037035;29;20027;-72
2023/03/12 03:23:05;;;;;;;6.05;2.53;;;4.20;99.90;;;;;;2039171;29;20016;-71
2023/03/12 03:24:06;;;;;;;8.88;2.60;;;4.20;99.90;;;;;;2037898;29;20159;-71
2023/03/12 03:25:08;;;;;;;7.97;2.45;;;4.20;99.90;;;;;;2037514;29;20034;-71
2023/03/12 03:26:08;;;;;;;4.93;2.58;;;4.20;99.90;;;;;;2036318;29;20035;-71
2023/03/12 03:27:09;;;;;;;6.60;2.90;;;4.20;99.90;;;;;;2029715;29;20044;-71
2023/03/12 03:28:09;;;;;;;8.07;3.20;;;4.20;99.90;;;;;;2029568;29;20028;-72
2023/03/12 03:29:10;;;;;;;7.88;2.50;;;4.20;99.90;;;;;;2037347;29;20031;-72
2023/03/12 03:30:11;;;;;;;12.55;3.20;;;4.20;99.90;;;;;;2033835;29;20030;-72
2023/03/12 03:31:12;;;;;;;3.90;3.15;;;4.20;99.90;;;;;;2035261;29;20028;-72
2023/03/12 03:32:12;;;;;;;5.38;2.75;;;4.20;99.90;;;;;;2036075;29;20023;-72
2023/03/12 03:33:13;;;;;;;7.20;2.90;;;4.20;99.90;;;;;;2037913;29;20050;-72
2023/03/12 03:34:13;;;;;;;4.03;2.53;;;4.20;99.90;;;;;;2037315;29;20024;-72
2023/03/12 03:35:15;;;;;;;4.50;2.60;;;4.20;99.90;;;;;;2037066;29;20028;-72
2023/03/12 03:36:16;;;;;;;5.63;2.85;;;4.20;99.90;;;;;;2035467;29;20039;-72
2023/03/12 03:37:16;;;;;;;6.65;2.47;;;4.20;99.90;;;;;;2036557;29;20016;-71
2023/03/12 03:38:17;;;;;;;10.27;2.55;;;4.10;99.90;;;;;;2037319;29;20024;-71
2023/03/12 03:39:19;;;;;;;6.85;2.78;;;4.10;99.90;;;;;;2035231;29;20024;-71
2023/03/12 03:40:19;;;;;;;7.10;2.88;;;4.10;99.90;;;;;;2032938;29;20359;-71
2023/03/12 03:41:21;;;;;;;5.15;2.30;;;4.10;99.90;;;;;;2036747;29;20028;-71
2023/03/12 03:42:22;;;;;;;6.43;2.35;;;4.10;99.90;;;;;;2035675;29;20028;-71
2023/03/12 03:43:23;;;;;;;4.20;2.65;;;4.10;99.90;;;;;;2035702;29;20074;-71
2023/03/12 03:44:23;;;;;;;4.57;2.83;;;4.10;99.90;;;;;;2037687;29;20502;-71
2023/03/12 03:45:24;;;;;;;5.80;2.55;;;4.10;99.90;;;;;;2036904;29;20060;-71
2023/03/12 03:46:25;;;;;;;8.60;3.05;;;4.10;99.90;;;;;;2035998;29;20019;-71
2023/03/12 03:47:26;;;;;;;7.70;2.78;;;4.10;99.90;;;;;;2036565;29;20031;-71
2023/03/12 03:48:26;;;;;;;4.18;2.80;;;4.10;99.90;;;;;;2037026;29;20027;-71
2023/03/12 03:49:27;;;;;;;5.20;2.22;;;4.10;99.90;;;;;;2038101;29;20487;-71
2023/03/12 03:50:27;;;;;;;5.60;2.30;;;4.10;99.90;;;;;;2037111;29;20023;-71
2023/03/12 03:51:28;;;;;;;5.68;2.60;;;4.10;99.90;;;;;;2037746;29;20072;-71
2023/03/12 03:52:29;;;;;;;5.90;2.83;;;4.10;99.90;;;;;;2027001;29;20064;-71
2023/03/12 03:53:30;;;;;;;6.07;2.85;;;4.10;99.90;;;;;;2026825;29;20051;-71
2023/03/12 03:54:30;;;;;;;5.25;2.28;;;4.10;99.90;;;;;;2035472;29;20036;-71
2023/03/12 03:55:34;;;;;;;7.13;3.08;;;4.10;99.90;;;;;;2036772;29;20524;-71
2023/03/12 03:56:35;;;;;;;6.20;3.08;;;4.10;99.90;;;;;;2034668;29;20028;-71
2023/03/12 03:57:36;;;;;;;4.63;3.00;;;4.10;99.90;;;;;;2036078;29;20163;-71
2023/03/12 03:58:37;;;;;;;4.22;2.35;;;4.10;99.90;;;;;;2033775;29;20031;-71
2023/03/12 03:59:37;;;;;;;6.63;2.60;;;4.10;99.90;;;;;;2036494;29;20028;-71
2023/03/12 04:00:38;;;;;;;2.88;2.38;;;4.10;99.90;;;;;;2035388;29;20032;-71
2023/03/12 04:01:38;;;;;;;5.07;2.70;;;4.10;99.90;;;;;;2035128;29;20020;-71
2023/03/12 04:02:39;;;;;;;7.93;2.97;;;4.10;99.90;;;;;;2035846;29;20032;-72
2023/03/12 04:03:40;;;;;;;5.50;2.70;;;4.10;99.90;;;;;;2035346;29;20030;-72
2023/03/12 04:04:40;;;;;;;5.28;2.40;;;4.10;99.90;;;;;;2036252;29;20028;-72
2023/03/12 04:05:44;;;;;;;5.28;2.95;;;4.10;99.90;;;;;;2035445;29;20075;-72
2023/03/12 04:06:44;;;;;;;6.30;2.70;;;4.10;99.90;;;;;;2035032;29;20153;-72
2023/03/12 04:07:45;;;;;;;4.63;2.42;;;4.20;99.90;;;;;;2036466;29;20028;-72
2023/03/12 04:08:45;;;;;;;6.45;2.97;;;4.10;99.90;;;;;;2035051;29;20050;-72
2023/03/12 04:09:46;;;;;;;6.28;2.70;;;4.20;99.90;;;;;;2036239;29;20403;-72
2023/03/12 04:10:46;;;;;;;6.68;3.03;;;4.10;99.90;;;;;;2035226;29;20032;-72
2023/03/12 04:11:47;;;;;;;5.57;2.85;;;4.20;99.90;;;;;;2036575;29;20028;-72
2023/03/12 04:12:48;;;;;;;7.75;3.10;;;4.20;99.90;;;;;;2034719;29;20615;-72
2023/03/12 04:13:49;;;;;;;7.22;2.95;;;4.20;99.90;;;;;;2036192;29;20028;-72
2023/03/12 04:14:49;;;;;;;5.78;2.90;;;4.10;99.90;;;;;;2034448;29;20287;-72
2023/03/12 04:15:53;;;;;;;7.18;2.70;;;4.20;99.90;;;;;;2037194;29;20087;-72
2023/03/12 04:16:54;;;;;;;3.85;2.50;;;4.20;99.90;;;;;;2036381;29;20499;-72
2023/03/12 04:17:54;;;;;;;5.65;2.20;;;4.10;99.90;;;;;;2035822;29;20439;-72
2023/03/12 04:18:55;;;;;;;8.23;3.17;;;4.20;99.90;;;;;;2034870;29;20067;-72
2023/03/12 04:19:55;;;;;;;9.90;2.70;;;4.20;99.90;;;;;;2035362;29;20031;-72
2023/03/12 04:20:56;;;;;;;5.20;2.65;;;4.20;99.90;;;;;;2035948;29;20024;-72
2023/03/12 04:21:56;;;;;;;5.60;2.70;;;4.20;99.90;;;;;;2035938;29;20055;-72
2023/03/12 04:22:57;;;;;;;3.70;2.42;;;4.20;99.90;;;;;;2034995;29;20106;-72
2023/03/12 04:23:58;;;;;;;5.70;2.78;;;4.20;99.90;;;;;;2035927;29;20035;-72
2023/03/12 04:24:58;;;;;;;4.75;2.40;;;4.20;99.90;;;;;;2034911;29;20608;-72
2023/03/12 04:25:59;;;;;;;9.50;2.60;;;4.20;99.90;;;;;;2035174;29;20098;-71
2023/03/12 04:27:00;;;;;;;4.93;2.63;;;4.20;99.90;;;;;;2035145;29;20027;-71
2023/03/12 04:28:00;;;;;;;4.78;2.55;;;4.20;99.90;;;;;;2036280;29;20039;-71
2023/03/12 04:29:01;;;;;;;6.07;2.35;;;4.20;99.90;;;;;;2027465;29;20020;-71
2023/03/12 04:30:02;;;;;;;5.65;2.97;;;4.20;99.90;;;;;;2027555;29;20037;-71
2023/03/12 04:31:05;;;;;;;4.68;2.60;;;4.20;99.90;;;;;;2037202;29;20036;-71
2023/03/12 04:32:06;;;;;;;4.65;2.65;;;4.20;99.90;;;;;;2034893;29;20050;-72
2023/03/12 04:33:07;;;;;;;7.40;2.30;;;4.20;99.90;;;;;;2035793;29;20038;-72
2023/03/12 04:34:08;;;;;;;4.55;2.65;;;4.30;99.90;;;;;;2034631;29;20046;-72
2023/03/12 04:35:08;;;;;;;3.40;2.40;;;4.30;99.90;;;;;;2037587;29;20034;-72
2023/03/12 04:36:11;;;;;;;4.22;2.05;;;4.30;99.90;;;;;;2035623;29;20038;-72
2023/03/12 04:37:14;;;;;;;4.03;2.70;;;4.30;99.90;;;;;;2034785;29;20024;-72
2023/03/12 04:38:15;;;;;;;8.18;2.47;;;4.30;99.90;;;;;;2036118;29;20030;-72
2023/03/12 04:39:18;;;;;;;4.82;2.53;;;4.30;99.90;;;;;;2036574;29;20038;-72
2023/03/12 04:40:18;;;;;;;6.80;2.47;;;4.30;99.90;;;;;;2035585;29;20059;-72
2023/03/12 04:41:19;;;;;;;4.32;2.47;;;4.30;99.90;;;;;;2036381;29;20016;-72
2023/03/12 04:42:19;;;;;;;6.90;3.08;;;4.30;99.90;;;;;;2036752;29;20491;-72
2023/03/12 04:43:20;;;;;;;5.70;2.55;;;4.30;99.90;;;;;;2036272;29;20032;-72
2023/03/12 04:44:20;;;;;;;6.35;2.25;;;4.30;99.90;;;;;;2036701;29;20041;-72
2023/03/12 04:45:21;;;;;;;3.63;2.63;;;4.30;99.90;;;;;;2030114;29;20016;-72
2023/03/12 04:46:22;;;;;;;6.78;2.75;;;4.30;99.90;;;;;;2030495;29;20020;-72
2023/03/12 04:47:22;;;;;;;4.90;2.47;;;4.30;99.90;;;;;;2035565;29;20471;-72
2023/03/12 04:48:24;;;;;;;7.18;2.70;;;4.30;99.90;;;;;;2036302;29;20124;-72
2023/03/12 04:49:24;;;;;;;11.25;3.13;;;4.40;99.90;;;;;;2035735;29;20036;-72
2023/03/12 04:50:25;;;;;;;4.28;2.15;;;4.40;99.90;;;;;;2036740;29;20114;-72
2023/03/12 04:51:25;;;;;;;3.83;2.35;;;4.40;99.90;;;;;;2036249;29;20023;-72
2023/03/12 04:52:26;;;;;;;5.93;2.50;;;4.40;99.90;;;;;;2035782;29;20505;-72
2023/03/12 04:53:27;;;;;;;4.55;2.47;;;4.40;99.90;;;;;;2035405;29;20034;-72
2023/03/12 04:54:27;;;;;;;8.15;2.63;;;4.40;99.90;;;;;;2034932;29;20031;-72
2023/03/12 04:55:28;;;;;;;6.70;2.00;;;4.40;99.90;;;;;;2036131;29;20075;-72
2023/03/12 04:56:28;;;;;;;4.70;2.53;;;4.40;99.90;;;;;;2037460;29;20098;-72
2023/03/12 04:57:29;;;;;;;4.65;2.65;;;4.40;99.90;;;;;;2035358;29;20024;-72
2023/03/12 04:58:29;;;;;;;6.35;2.30;;;4.40;99.90;;;;;;2036116;29;20028;-72
2023/03/12 04:59:30;;;;;;;7.15;2.80;;;4.40;99.90;;;;;;2034246;29;20027;-72
2023/03/12 05:00:31;;;;;;;8.60;2.90;;;4.40;99.90;;;;;;2037056;29;21760;-72
2023/03/12 05:01:34;;;;;;;5.75;2.67;;;4.40;99.90;;;;;;2034963;29;20024;-72
2023/03/12 05:02:36;;;;;;;4.65;1.92;;;4.50;99.90;;;;;;2033417;29;20694;-72
2023/03/12 05:03:37;;;;;;;6.38;2.65;;;4.50;99.90;;;;;;2035689;29;20158;-72
2023/03/12 05:04:37;;;;;;;7.45;2.70;;;4.50;99.90;;;;;;2035599;29;20030;-72
2023/03/12 05:05:38;;;;;;;5.03;2.60;;;4.50;99.90;;;;;;2037110;29;20028;-72
2023/03/12 05:06:38;;;;;;;6.97;2.25;;;4.50;99.90;;;;;;2036472;29;20024;-72
2023/03/12 05:07:39;;;;;;;4.45;2.53;;;4.50;99.90;;;;;;2035789;29;20474;-72
2023/03/12 05:08:39;;;;;;;5.68;2.47;;;4.50;99.90;;;;;;2035407;29;20044;-72
2023/03/12 05:09:40;;;;;;;7.03;2.47;;;4.50;99.90;;;;;;2034529;29;20449;-72
2023/03/12 05:10:44;;;;;;;5.90;2.63;;;4.50;99.90;;;;;;2034867;29;20100;-72
2023/03/12 05:11:44;;;;;;;5.57;2.53;;;4.50;99.90;;;;;;2036274;29;20558;-72
2023/03/12 05:12:45;;;;;;;7.25;2.60;;;4.50;99.90;;;;;;2035205;29;20028;-72
2023/03/12 05:13:46;;;;;;;4.43;2.47;;;4.60;99.90;;;;;;2036133;29;20110;-72
2023/03/12 05:14:46;;;;;;;4.63;2.25;;;4.50;99.90;;;;;;2033214;29;20035;-72
2023/03/12 05:15:49;;;;;;;5.72;2.70;;;4.50;99.40;;;;;;2036168;29;20032;-72
2023/03/12 05:16:50;;;;;;;6.20;2.20;;;4.50;99.20;;;;;;2035813;29;20035;-72
2023/03/12 05:17:51;;;;;;;5.80;2.28;;;4.60;99.10;;;;;;2037176;29;20032;-72
2023/03/12 05:18:51;;;;;;;4.90;2.30;;;4.60;99.00;;;;;;2037930;29;20047;-72
2023/03/12 05:19:52;;;;;;;6.43;2.20;;;4.60;98.70;;;;;;2035849;29;20475;-72
2023/03/12 05:20:58;;;;;;;5.03;2.40;;;4.60;98.80;;;;;;2037371;29;20030;-72
2023/03/12 05:21:59;;;;;;;7.15;2.42;;;4.60;98.70;;;;;;2036675;29;20377;-72
2023/03/12 05:22:59;;;;;;;8.23;2.38;;;4.60;99.00;;;;;;2034178;29;20050;-72
2023/03/12 05:24:00;;;;;;;2.47;2.28;;;4.60;98.80;;;;;;2034039;29;20034;-72
2023/03/12 05:25:02;;;;;;;6.25;2.08;;;4.60;99.00;;;;;;2027928;29;20036;-72
2023/03/12 05:26:02;;;;;;;12.27;2.33;;;4.70;99.20;;;;;;2028147;29;20103;-72
2023/03/12 05:27:03;;;;;;;6.13;2.40;;;4.60;99.60;;;;;;2035544;29;20082;-72